Time;durP1;ratioP1;P1;durP2;ratioP2;P2;SDS_P1;SDS_P2;PMS_P1;PMS_P2;Temp;Humidity;BMP_temperature;BMP_pressure;BME280_temperature;BME280_humidity;BME280_pressure;Samples;Min_cycle;Max_cycle;Signal;HPM_P1;HPM_P2
2022/03/14 00:01:40;;;;;;;7.97;6.90;;;6.30;1.00;;;;;;5070171;28;20649;-60
2022/03/14 00:04:06;;;;;;;7.43;6.63;;;6.30;1.00;;;;;;5073877;28;20264;-60
2022/03/14 00:06:33;;;;;;;6.93;6.10;;;6.30;1.00;;;;;;5081545;28;20635;-67
2022/03/14 00:09:00;;;;;;;7.40;6.70;;;6.30;1.00;;;;;;5071617;28;20400;-67
2022/03/14 00:11:29;;;;;;;7.10;6.40;;;6.30;1.00;;;;;;5081733;28;20481;-61
2022/03/14 00:13:56;;;;;;;8.03;7.17;;;6.30;1.00;;;;;;5090157;28;20444;-67
2022/03/14 00:16:25;;;;;;;8.20;6.97;;;6.30;1.00;;;;;;5080232;28;20422;-67
2022/03/14 00:18:53;;;;;;;7.70;7.00;;;6.30;1.00;;;;;;5091569;28;20651;-60
2022/03/14 00:21:25;;;;;;;7.17;6.40;;;6.40;1.00;;;;;;5066181;28;20462;-67
2022/03/14 00:23:55;;;;;;;7.53;6.83;;;6.30;1.00;;;;;;5072369;28;20915;-60
2022/03/14 00:26:25;;;;;;;7.50;6.80;;;6.40;1.00;;;;;;5073118;28;20421;-67
2022/03/14 00:28:51;;;;;;;10.60;7.40;;;6.40;1.00;;;;;;5079442;28;20419;-60
2022/03/14 00:31:18;;;;;;;7.40;6.70;;;6.30;1.00;;;;;;5086333;28;20471;-66
2022/03/14 00:33:43;;;;;;;12.67;6.97;;;6.30;1.00;;;;;;5072110;28;20408;-67
2022/03/14 00:36:09;;;;;;;8.70;7.67;;;6.30;1.00;;;;;;5075606;28;20412;-61
2022/03/14 00:38:36;;;;;;;10.33;6.83;;;6.20;1.00;;;;;;5089935;28;20165;-60
2022/03/14 00:41:03;;;;;;;10.40;8.10;;;6.20;1.00;;;;;;5063578;28;20465;-67
2022/03/14 00:43:30;;;;;;;9.47;8.57;;;6.20;1.00;;;;;;5071943;28;20404;-61
2022/03/14 00:45:56;;;;;;;14.60;7.73;;;6.20;1.00;;;;;;5080974;28;20476;-67
2022/03/14 00:48:22;;;;;;;10.30;7.80;;;6.20;1.00;;;;;;5091825;28;20395;-61
2022/03/14 00:50:49;;;;;;;10.57;7.90;;;6.20;1.00;;;;;;5084511;28;20829;-60
2022/03/14 00:53:15;;;;;;;11.37;8.20;;;6.20;1.00;;;;;;5020764;28;1478137;-60
2022/03/14 00:55:40;;;;;;;7.57;6.60;;;6.20;1.00;;;;;;5076358;28;20176;-60
2022/03/14 00:58:07;;;;;;;9.67;7.60;;;6.20;1.00;;;;;;5092911;28;20453;-66
2022/03/14 01:00:33;;;;;;;15.60;7.90;;;6.10;1.00;;;;;;5089120;28;20658;-60
2022/03/14 01:02:59;;;;;;;8.97;8.07;;;6.10;1.00;;;;;;5090555;28;20526;-60
2022/03/14 01:05:26;;;;;;;9.00;7.20;;;6.10;1.00;;;;;;5092799;28;20399;-61
2022/03/14 01:07:51;;;;;;;9.40;7.97;;;6.10;1.00;;;;;;5074149;28;20789;-67
2022/03/14 01:10:17;;;;;;;12.47;8.40;;;6.10;1.00;;;;;;5071483;28;20454;-60
2022/03/14 01:12:43;;;;;;;9.60;7.80;;;6.10;1.00;;;;;;5072435;28;20216;-65
2022/03/14 01:15:09;;;;;;;11.40;8.13;;;6.00;1.00;;;;;;5090674;28;20503;-59
2022/03/14 01:17:36;;;;;;;9.50;7.60;;;6.10;1.00;;;;;;5082807;28;20539;-67
2022/03/14 01:20:05;;;;;;;11.20;7.73;;;6.00;1.00;;;;;;5088265;28;20430;-62
2022/03/14 01:22:31;;;;;;;10.40;6.80;;;6.00;1.00;;;;;;5092679;28;20449;-67
2022/03/14 01:24:57;;;;;;;11.83;8.00;;;5.90;1.00;;;;;;5076887;28;21138;-60
2022/03/14 01:27:22;;;;;;;15.90;8.93;;;6.00;1.00;;;;;;5072515;28;20432;-67
2022/03/14 01:29:48;;;;;;;10.37;8.70;;;6.00;1.00;;;;;;5084884;28;20653;-67
2022/03/14 01:32:14;;;;;;;16.83;8.50;;;5.90;1.00;;;;;;5092138;28;20545;-66
2022/03/14 01:34:40;;;;;;;14.90;9.17;;;5.90;1.00;;;;;;5081576;28;20705;-67
2022/03/14 01:37:06;;;;;;;14.40;9.37;;;5.90;1.00;;;;;;5092520;28;20490;-60
2022/03/14 01:39:32;;;;;;;10.40;8.70;;;5.80;1.00;;;;;;5081500;28;20182;-67
2022/03/14 01:41:58;;;;;;;14.93;9.20;;;5.80;1.00;;;;;;5054589;28;20431;-61
2022/03/14 01:44:24;;;;;;;12.53;7.80;;;5.80;1.00;;;;;;5083036;28;20178;-67
2022/03/14 01:46:50;;;;;;;10.23;8.30;;;5.80;1.00;;;;;;5072241;28;20487;-60
2022/03/14 01:49:16;;;;;;;9.60;8.27;;;5.80;1.00;;;;;;5077158;28;20223;-60
2022/03/14 01:51:43;;;;;;;15.90;8.00;;;5.70;1.00;;;;;;5094100;28;20451;-65
2022/03/14 01:54:09;;;;;;;11.23;9.20;;;5.70;1.00;;;;;;5090947;28;20412;-60
2022/03/14 01:56:38;;;;;;;14.70;9.10;;;5.60;1.00;;;;;;5075879;28;20458;-60
2022/03/14 01:59:05;;;;;;;17.60;8.80;;;5.60;1.00;;;;;;5074885;28;20939;-60
2022/03/14 02:01:31;;;;;;;13.70;9.80;;;5.50;1.00;;;;;;5075564;28;20424;-61
2022/03/14 02:03:57;;;;;;;15.60;8.87;;;5.50;1.00;;;;;;5077011;28;20401;-60
2022/03/14 02:06:23;;;;;;;12.50;8.80;;;5.50;1.00;;;;;;5093951;28;20420;-67
2022/03/14 02:08:48;;;;;;;13.90;8.60;;;5.50;1.00;;;;;;5094253;28;20963;-61
2022/03/14 02:11:14;;;;;;;12.67;9.30;;;5.50;1.00;;;;;;5075296;28;20210;-67
2022/03/14 02:13:39;;;;;;;12.30;8.80;;;5.50;1.00;;;;;;5075392;28;20195;-60
2022/03/14 02:16:05;;;;;;;10.37;8.50;;;5.40;1.00;;;;;;5093209;28;20626;-61
2022/03/14 02:18:31;;;;;;;16.23;9.00;;;5.40;1.00;;;;;;5094872;28;20168;-66
2022/03/14 02:20:56;;;;;;;12.67;9.97;;;5.30;1.00;;;;;;5060950;28;20179;-60
2022/03/14 02:23:22;;;;;;;11.07;9.67;;;5.40;1.00;;;;;;5083668;28;20176;-61
2022/03/14 02:25:52;;;;;;;11.83;9.30;;;5.50;1.00;;;;;;5093757;28;20181;-67
2022/03/14 02:28:21;;;;;;;11.30;8.93;;;5.40;1.00;;;;;;5077109;28;20170;-61
2022/03/14 02:30:47;;;;;;;15.60;8.67;;;5.50;1.00;;;;;;5074399;28;20963;-66
2022/03/14 02:33:13;;;;;;;10.87;9.27;;;5.50;1.00;;;;;;5075062;28;20418;-60
2022/03/14 02:35:42;;;;;;;9.23;8.37;;;5.50;1.00;;;;;;5092218;28;20199;-60
2022/03/14 02:38:11;;;;;;;10.87;8.60;;;5.40;1.00;;;;;;5094821;28;20728;-63
2022/03/14 02:40:39;;;;;;;15.90;10.00;;;5.40;1.00;;;;;;5092872;28;20506;-67
2022/03/14 02:43:05;;;;;;;11.43;9.03;;;5.40;1.00;;;;;;5095040;28;20510;-61
2022/03/14 02:45:32;;;;;;;10.90;8.83;;;5.40;1.00;;;;;;5075182;28;20469;-62
2022/03/14 02:47:58;;;;;;;12.63;8.43;;;5.40;1.00;;;;;;5074437;28;20404;-67
2022/03/14 02:50:24;;;;;;;13.77;9.27;;;5.40;1.00;;;;;;5091013;28;20546;-67
2022/03/14 02:52:50;;;;;;;10.73;9.03;;;5.40;1.00;;;;;;5094765;28;20525;-60
2022/03/14 02:55:17;;;;;;;15.83;8.80;;;5.30;1.00;;;;;;5080140;28;20169;-60
2022/03/14 02:57:43;;;;;;;12.20;9.10;;;5.30;1.00;;;;;;5074578;28;20169;-61
2022/03/14 03:00:10;;;;;;;12.63;9.67;;;5.30;1.00;;;;;;5087062;28;20426;-67
2022/03/14 03:02:37;;;;;;;18.53;9.83;;;5.30;1.00;;;;;;5091627;28;20193;-66
2022/03/14 03:05:05;;;;;;;18.10;10.83;;;5.30;1.00;;;;;;5081603;28;20423;-60
2022/03/14 03:07:31;;;;;;;14.63;9.60;;;5.30;1.00;;;;;;5074244;28;20445;-66
2022/03/14 03:09:57;;;;;;;12.27;9.90;;;5.30;1.00;;;;;;5084103;28;20451;-60
2022/03/14 03:12:28;;;;;;;12.07;9.20;;;5.30;1.00;;;;;;5067755;28;20443;-60
2022/03/14 03:14:54;;;;;;;11.40;9.40;;;5.30;1.00;;;;;;5083851;28;20260;-67
2022/03/14 03:17:21;;;;;;;12.33;10.40;;;5.30;1.00;;;;;;5094585;28;20867;-67
2022/03/14 03:19:46;;;;;;;12.20;9.17;;;5.30;1.00;;;;;;5084672;28;20459;-60
2022/03/14 03:22:12;;;;;;;9.57;8.57;;;5.30;1.00;;;;;;5073858;28;20516;-67
2022/03/14 03:24:38;;;;;;;13.30;10.27;;;5.30;1.00;;;;;;5080080;28;20313;-60
2022/03/14 03:27:04;;;;;;;15.23;10.50;;;5.20;1.00;;;;;;5094263;28;20851;-60
2022/03/14 03:29:30;;;;;;;12.87;9.10;;;5.20;1.00;;;;;;5084693;28;20566;-60
2022/03/14 03:31:55;;;;;;;13.23;9.73;;;5.10;1.00;;;;;;5094013;28;20434;-67
2022/03/14 03:34:21;;;;;;;12.37;9.87;;;5.10;1.00;;;;;;5091357;28;20239;-60
2022/03/14 03:36:46;;;;;;;17.60;9.13;;;5.10;1.00;;;;;;5073059;28;20172;-66
2022/03/14 03:39:12;;;;;;;14.33;9.00;;;5.10;1.00;;;;;;5080252;28;20169;-60
2022/03/14 03:41:40;;;;;;;13.73;9.77;;;5.10;1.00;;;;;;5093777;28;20650;-66
2022/03/14 03:44:07;;;;;;;14.50;9.83;;;5.00;1.00;;;;;;5069058;28;20226;-64
2022/03/14 03:46:32;;;;;;;13.93;10.10;;;5.10;1.00;;;;;;5074669;28;20417;-60
2022/03/14 03:48:58;;;;;;;9.90;8.07;;;5.10;1.00;;;;;;5076544;28;20428;-60
2022/03/14 03:51:24;;;;;;;14.90;9.40;;;5.00;1.00;;;;;;5093615;28;20215;-62
2022/03/14 03:53:49;;;;;;;15.40;10.13;;;5.00;1.00;;;;;;5090271;28;20546;-60
2022/03/14 03:56:16;;;;;;;12.40;8.77;;;5.00;1.00;;;;;;5073356;28;20172;-66
2022/03/14 03:58:42;;;;;;;12.27;9.10;;;5.00;1.00;;;;;;5073087;28;20268;-67
2022/03/14 04:01:08;;;;;;;16.67;10.17;;;5.00;1.00;;;;;;5093202;28;20445;-66
2022/03/14 04:03:34;;;;;;;13.30;9.53;;;5.00;1.00;;;;;;5092286;28;20408;-67
2022/03/14 04:06:00;;;;;;;12.97;10.00;;;4.90;1.00;;;;;;5073871;28;20522;-67
2022/03/14 04:08:30;;;;;;;17.47;9.83;;;4.80;1.00;;;;;;5073065;28;20454;-60
2022/03/14 04:10:58;;;;;;;15.23;9.37;;;4.90;1.00;;;;;;5090824;28;20582;-60
2022/03/14 04:13:28;;;;;;;11.00;9.90;;;4.90;1.00;;;;;;5092713;28;20414;-61
2022/03/14 04:15:57;;;;;;;17.00;10.53;;;4.90;1.00;;;;;;5075957;28;20417;-66
2022/03/14 04:18:25;;;;;;;14.93;9.97;;;4.90;1.00;;;;;;5073964;28;20941;-67
2022/03/14 04:20:51;;;;;;;13.30;8.67;;;4.90;1.00;;;;;;5087889;28;20414;-66
2022/03/14 04:23:17;;;;;;;13.90;10.13;;;4.80;1.00;;;;;;5093411;28;20402;-67
2022/03/14 04:25:44;;;;;;;19.40;12.17;;;4.80;1.00;;;;;;5078823;28;20421;-67
2022/03/14 04:28:14;;;;;;;16.07;10.80;;;4.80;1.00;;;;;;5072820;28;20406;-60
2022/03/14 04:30:39;;;;;;;14.80;11.37;;;4.80;1.00;;;;;;5084301;28;20460;-60
2022/03/14 04:33:06;;;;;;;16.77;10.33;;;4.80;1.00;;;;;;5093031;28;20436;-60
2022/03/14 04:35:32;;;;;;;13.00;9.90;;;4.80;1.00;;;;;;5082683;28;20165;-60
2022/03/14 04:37:58;;;;;;;20.13;11.30;;;4.80;1.00;;;;;;5075777;28;20434;-66
2022/03/14 04:40:23;;;;;;;17.47;12.07;;;4.80;1.00;;;;;;5092187;28;20204;-67
2022/03/14 04:42:49;;;;;;;12.57;9.70;;;4.70;1.00;;;;;;5091634;28;20185;-65
2022/03/14 04:45:15;;;;;;;16.30;10.30;;;4.70;1.00;;;;;;5092770;28;20229;-67
2022/03/14 04:47:40;;;;;;;13.17;9.87;;;4.60;1.00;;;;;;5092451;28;20632;-60
2022/03/14 04:50:06;;;;;;;15.43;9.67;;;4.60;1.00;;;;;;5072413;28;20222;-66
2022/03/14 04:52:33;;;;;;;17.93;10.90;;;4.60;1.00;;;;;;5073626;28;20691;-67
2022/03/14 04:54:59;;;;;;;12.77;10.27;;;4.60;1.00;;;;;;5090180;28;20411;-67
2022/03/14 04:57:25;;;;;;;13.70;11.07;;;4.60;1.00;;;;;;5092930;28;20880;-61
2022/03/14 04:59:51;;;;;;;11.30;8.97;;;4.60;1.00;;;;;;5079583;28;20420;-61
2022/03/14 05:02:22;;;;;;;17.93;10.63;;;4.50;1.00;;;;;;5092210;28;20515;-62
2022/03/14 05:04:47;;;;;;;18.00;10.23;;;4.50;1.00;;;;;;5092168;28;20238;-68
2022/03/14 05:07:13;;;;;;;13.20;9.83;;;4.60;1.00;;;;;;5090914;28;20428;-64
2022/03/14 05:09:39;;;;;;;14.80;10.30;;;4.60;1.00;;;;;;5080211;28;20177;-61
2022/03/14 05:12:05;;;;;;;14.00;10.40;;;4.50;1.00;;;;;;5092789;28;20428;-67
2022/03/14 05:14:30;;;;;;;10.97;9.20;;;4.50;1.00;;;;;;5085514;28;20181;-60
2022/03/14 05:16:56;;;;;;;18.47;11.40;;;4.50;1.00;;;;;;5072560;28;20416;-60
2022/03/14 05:19:22;;;;;;;16.13;9.93;;;4.40;1.00;;;;;;5076634;28;20174;-68
2022/03/14 05:21:48;;;;;;;11.87;9.50;;;4.40;1.00;;;;;;5092707;28;20472;-60
2022/03/14 05:24:13;;;;;;;14.87;10.70;;;4.40;1.00;;;;;;5088733;28;20186;-61
2022/03/14 05:26:39;;;;;;;16.03;10.70;;;4.40;1.00;;;;;;5095105;28;20233;-61
2022/03/14 05:29:05;;;;;;;20.53;11.70;;;4.40;1.00;;;;;;5094132;28;20541;-67
2022/03/14 05:31:31;;;;;;;17.83;11.03;;;4.40;1.00;;;;;;5076024;28;20377;-66
2022/03/14 05:33:56;;;;;;;15.00;10.50;;;4.40;1.00;;;;;;5076196;28;20405;-60
2022/03/14 05:36:22;;;;;;;18.80;10.90;;;4.40;1.00;;;;;;5095662;28;20931;-69
2022/03/14 05:38:48;;;;;;;23.23;10.97;;;4.40;1.00;;;;;;5095334;28;20170;-61
2022/03/14 05:41:13;;;;;;;16.93;10.37;;;4.40;1.00;;;;;;5090448;28;20201;-59
2022/03/14 05:43:39;;;;;;;17.63;11.30;;;4.40;1.00;;;;;;5095570;28;20741;-62
2022/03/14 05:46:06;;;;;;;17.03;10.80;;;4.40;1.00;;;;;;5079854;28;20190;-68
2022/03/14 05:48:35;;;;;;;16.00;10.30;;;4.40;1.00;;;;;;5074888;28;20628;-66
2022/03/14 05:51:03;;;;;;;24.93;11.40;;;4.40;1.00;;;;;;5090012;28;20452;-66
2022/03/14 05:53:30;;;;;;;19.50;10.27;;;4.50;1.00;;;;;;5095697;28;20476;-69
2022/03/14 05:55:56;;;;;;;21.73;10.70;;;4.40;1.00;;;;;;5082459;28;20901;-60
2022/03/14 05:58:22;;;;;;;14.27;11.07;;;4.50;1.00;;;;;;5093993;28;20426;-62
2022/03/14 06:00:48;;;;;;;19.57;12.80;;;4.40;1.00;;;;;;5082824;28;20417;-69
2022/03/14 06:03:15;;;;;;;19.10;11.18;;;4.40;1.00;;;;;;5075189;28;20540;-69
2022/03/14 06:05:41;;;;;;;17.90;12.37;;;4.40;1.00;;;;;;5085208;28;20185;-62
2022/03/14 06:08:06;;;;;;;21.67;12.03;;;4.40;1.00;;;;;;5095745;28;20403;-64
2022/03/14 06:10:33;;;;;;;16.90;10.93;;;4.40;1.00;;;;;;5086650;28;20453;-70
2022/03/14 06:12:59;;;;;;;20.47;12.43;;;4.30;1.00;;;;;;5059504;28;20927;-66
2022/03/14 06:15:24;;;;;;;21.40;12.13;;;4.30;1.00;;;;;;5090809;28;20495;-69
2022/03/14 06:17:50;;;;;;;23.20;12.37;;;4.30;1.00;;;;;;5095773;28;20408;-69
2022/03/14 06:20:15;;;;;;;14.80;11.23;;;4.30;1.00;;;;;;5075314;28;20174;-62
2022/03/14 06:22:44;;;;;;;19.90;11.97;;;4.30;1.00;;;;;;5095350;28;20193;-69
2022/03/14 06:25:10;;;;;;;17.93;12.83;;;4.30;1.00;;;;;;5092344;28;20180;-63
2022/03/14 06:27:36;;;;;;;16.27;11.77;;;4.30;1.00;;;;;;5092705;28;20488;-62
2022/03/14 06:30:02;;;;;;;19.00;11.83;;;4.40;1.00;;;;;;5093436;28;20451;-63
2022/03/14 06:32:36;;;;;;;20.23;12.20;;;4.40;1.00;;;;;;5095288;28;20546;-62
2022/03/14 06:35:07;;;;;;;20.17;12.20;;;4.40;1.00;;;;;;5087321;28;20420;-64
2022/03/14 06:37:33;;;;;;;18.40;12.00;;;4.50;1.00;;;;;;5095126;28;20400;-63
2022/03/14 06:39:59;;;;;;;20.47;13.40;;;4.40;1.00;;;;;;5074783;28;20425;-62
2022/03/14 06:42:25;;;;;;;20.53;12.13;;;4.50;1.00;;;;;;5074881;28;20191;-62
2022/03/14 06:44:51;;;;;;;16.43;12.23;;;4.50;1.00;;;;;;5091577;28;20952;-63
2022/03/14 06:47:17;;;;;;;14.67;11.70;;;4.50;1.00;;;;;;5094994;28;20405;-63
2022/03/14 06:49:44;;;;;;;16.80;10.70;;;4.60;1.00;;;;;;5086871;28;20415;-63
2022/03/14 06:52:12;;;;;;;17.10;10.97;;;4.60;1.00;;;;;;5094852;28;20494;-63
2022/03/14 06:54:38;;;;;;;25.83;13.03;;;4.60;1.00;;;;;;5094348;28;20415;-69
2022/03/14 06:57:07;;;;;;;14.30;11.30;;;4.60;1.00;;;;;;5094850;28;20400;-68
2022/03/14 06:59:33;;;;;;;24.43;12.20;;;4.60;1.00;;;;;;5093277;28;20537;-69
2022/03/14 07:01:59;;;;;;;16.13;12.60;;;4.70;1.00;;;;;;5094860;28;20511;-63
2022/03/14 07:04:25;;;;;;;25.57;13.33;;;4.60;1.00;;;;;;5094643;28;20162;-63
2022/03/14 07:06:51;;;;;;;20.33;12.53;;;4.70;1.00;;;;;;5094377;28;20440;-63
2022/03/14 07:09:17;;;;;;;26.43;11.90;;;4.80;1.00;;;;;;5093818;28;20530;-69
2022/03/14 07:11:42;;;;;;;19.73;13.27;;;4.80;1.00;;;;;;5094368;28;20213;-69
2022/03/14 07:14:08;;;;;;;20.90;12.60;;;4.90;1.00;;;;;;5094641;28;20553;-63
2022/03/14 07:16:34;;;;;;;15.80;12.30;;;4.90;1.00;;;;;;5094064;28;20255;-69
2022/03/14 07:19:00;;;;;;;22.50;11.90;;;4.90;1.00;;;;;;5093476;28;20526;-63
2022/03/14 07:21:29;;;;;;;20.87;11.17;;;5.00;1.00;;;;;;5094199;28;20500;-67
2022/03/14 07:23:55;;;;;;;17.93;10.70;;;5.10;1.00;;;;;;5094278;28;20446;-62
2022/03/14 07:26:21;;;;;;;19.87;12.20;;;5.10;1.00;;;;;;5094329;28;20405;-62
2022/03/14 07:28:48;;;;;;;18.13;11.27;;;5.20;1.00;;;;;;5093309;28;20398;-63
2022/03/14 07:31:14;;;;;;;20.53;13.53;;;5.30;1.00;;;;;;5094172;28;20248;-69
2022/03/14 07:33:40;;;;;;;22.03;12.33;;;5.30;1.00;;;;;;5094033;28;20391;-69
2022/03/14 07:36:05;;;;;;;20.20;13.20;;;5.40;1.00;;;;;;5093557;28;20742;-67
2022/03/14 07:38:31;;;;;;;24.30;13.17;;;5.50;1.00;;;;;;5092918;28;20191;-69
2022/03/14 07:40:56;;;;;;;19.30;11.73;;;5.60;1.00;;;;;;5093966;28;20196;-69
2022/03/14 07:43:22;;;;;;;18.03;12.10;;;5.60;1.00;;;;;;5094109;28;20562;-68
2022/03/14 07:45:48;;;;;;;16.63;11.87;;;5.70;1.00;;;;;;5075740;28;20174;-69
2022/03/14 07:48:14;;;;;;;18.90;13.13;;;5.70;1.00;;;;;;5093224;28;20438;-62
2022/03/14 07:50:41;;;;;;;14.33;10.20;;;5.70;1.00;;;;;;5092988;28;20236;-69
2022/03/14 07:53:07;;;;;;;20.70;13.73;;;5.80;1.00;;;;;;5093140;28;20674;-62
2022/03/14 07:55:33;;;;;;;16.27;11.70;;;5.80;1.00;;;;;;5093381;28;20510;-69
2022/03/14 07:57:58;;;;;;;20.17;11.77;;;5.90;1.00;;;;;;5093751;28;20411;-69
2022/03/14 08:00:24;;;;;;;17.03;12.83;;;6.00;1.00;;;;;;5092757;28;20408;-70
2022/03/14 08:02:50;;;;;;;22.10;12.27;;;6.10;1.00;;;;;;5093539;28;20577;-70
2022/03/14 08:05:19;;;;;;;16.77;11.80;;;6.20;1.00;;;;;;5093637;28;20173;-62
2022/03/14 08:07:47;;;;;;;13.57;11.03;;;6.30;1.00;;;;;;5093529;28;20430;-69
2022/03/14 08:10:15;;;;;;;21.10;13.63;;;6.30;1.00;;;;;;5092606;28;20453;-63
2022/03/14 08:12:46;;;;;;;19.60;12.63;;;6.40;1.00;;;;;;5092719;28;20431;-64
2022/03/14 08:15:21;;;;;;;25.83;14.23;;;6.50;1.00;;;;;;5093240;28;20415;-63
2022/03/14 08:17:47;;;;;;;22.10;12.50;;;6.60;1.00;;;;;;5093321;28;20410;-64
2022/03/14 08:20:12;;;;;;;19.33;12.67;;;6.60;1.00;;;;;;5091323;28;20935;-63
2022/03/14 08:22:39;;;;;;;26.73;12.43;;;6.70;1.00;;;;;;5093410;28;20596;-62
2022/03/14 08:25:05;;;;;;;20.43;11.93;;;6.70;1.00;;;;;;5083105;28;20547;-62
2022/03/14 08:27:30;;;;;;;19.70;12.83;;;6.80;1.00;;;;;;5079989;28;20430;-68
2022/03/14 08:29:56;;;;;;;23.27;14.33;;;6.90;1.00;;;;;;5084581;28;20452;-63
2022/03/14 08:32:22;;;;;;;17.57;11.83;;;7.00;1.00;;;;;;5072310;28;20186;-64
2022/03/14 08:34:49;;;;;;;19.10;13.33;;;7.00;1.00;;;;;;5079178;28;20173;-69
2022/03/14 08:37:15;;;;;;;16.43;12.83;;;7.20;1.00;;;;;;5093307;28;20400;-63
2022/03/14 08:39:41;;;;;;;24.03;12.90;;;7.30;1.00;;;;;;5087085;28;20511;-62
2022/03/14 08:42:09;;;;;;;23.57;13.23;;;7.40;1.00;;;;;;5072680;28;20496;-64
2022/03/14 08:44:34;;;;;;;19.57;12.53;;;7.50;1.00;;;;;;5084096;28;20507;-64
2022/03/14 08:47:00;;;;;;;17.83;13.10;;;7.70;1.00;;;;;;5092990;28;20494;-72
2022/03/14 08:49:26;;;;;;;20.57;12.13;;;7.90;1.00;;;;;;5089940;28;20176;-68
2022/03/14 08:51:51;;;;;;;14.93;12.47;;;8.00;1.00;;;;;;5072482;28;20261;-64
2022/03/14 08:54:17;;;;;;;21.87;12.43;;;8.20;1.00;;;;;;5072731;28;20522;-71
2022/03/14 08:56:42;;;;;;;18.47;13.00;;;8.30;1.00;;;;;;5073805;28;20219;-71
2022/03/14 08:59:11;;;;;;;20.20;14.77;;;8.50;1.00;;;;;;5072016;28;20181;-70
2022/03/14 09:01:38;;;;;;;20.33;13.60;;;8.60;1.00;;;;;;5091007;28;20200;-72
2022/03/14 09:04:04;;;;;;;25.73;14.20;;;8.70;1.00;;;;;;5096954;28;20429;-71
2022/03/14 09:06:29;;;;;;;21.43;13.40;;;8.90;1.00;;;;;;5096397;28;20409;-71
2022/03/14 09:08:55;;;;;;;19.40;13.70;;;9.10;1.00;;;;;;5095227;28;20401;-64
2022/03/14 09:11:21;;;;;;;19.40;12.57;;;9.10;1.00;;;;;;5096787;28;20266;-64
2022/03/14 09:13:47;;;;;;;21.63;13.53;;;9.10;1.00;;;;;;5096141;28;20173;-64
2022/03/14 09:16:13;;;;;;;18.33;12.80;;;9.20;1.00;;;;;;5089097;28;20975;-64
2022/03/14 09:18:38;;;;;;;17.93;12.43;;;9.30;1.00;;;;;;5094886;28;20171;-64
2022/03/14 09:21:04;;;;;;;24.80;14.07;;;9.40;1.00;;;;;;5094486;28;20227;-63
2022/03/14 09:23:30;;;;;;;24.73;15.13;;;9.50;1.00;;;;;;5093658;28;20181;-72
2022/03/14 09:25:58;;;;;;;17.53;12.80;;;9.70;1.00;;;;;;5057807;28;20263;-64
2022/03/14 09:28:23;;;;;;;22.90;13.67;;;9.70;1.00;;;;;;5075545;28;20403;-70
2022/03/14 09:30:49;;;;;;;25.33;15.00;;;9.80;1.00;;;;;;5095397;28;20801;-64
2022/03/14 09:33:15;;;;;;;22.13;13.23;;;9.90;1.00;;;;;;5096547;28;20204;-63
2022/03/14 09:35:41;;;;;;;27.93;12.40;;;10.30;1.00;;;;;;5091585;28;20172;-71
2022/03/14 09:38:06;;;;;;;21.63;12.80;;;10.50;1.00;;;;;;5076274;28;20396;-72
2022/03/14 09:40:32;;;;;;;20.33;13.20;;;10.40;1.00;;;;;;5093015;28;20711;-64
2022/03/14 09:42:59;;;;;;;31.43;16.07;;;10.40;1.00;;;;;;5096040;28;20256;-64
2022/03/14 09:45:26;;;;;;;28.73;15.40;;;10.40;1.00;;;;;;5093684;28;20591;-64
2022/03/14 09:47:57;;;;;;;21.07;14.63;;;10.40;1.00;;;;;;5095966;28;20449;-63
2022/03/14 09:50:34;;;;;;;20.50;12.60;;;10.50;1.00;;;;;;5094085;28;20974;-72
2022/03/14 09:53:09;;;;;;;24.13;14.90;;;10.60;1.00;;;;;;5095890;28;20442;-72
2022/03/14 09:55:46;;;;;;;23.73;13.70;;;10.80;1.00;;;;;;5076733;28;20417;-65
2022/03/14 09:58:18;;;;;;;26.90;15.77;;;11.00;1.00;;;;;;5075676;28;20432;-65
2022/03/14 10:00:44;;;;;;;22.50;14.77;;;11.40;1.00;;;;;;5086445;28;20443;-71
2022/03/14 10:03:10;;;;;;;21.00;13.33;;;11.70;1.00;;;;;;5075033;28;20748;-63
2022/03/14 10:05:36;;;;;;;25.53;14.07;;;12.10;1.00;;;;;;5091256;28;20416;-65
2022/03/14 10:08:02;;;;;;;20.93;13.40;;;12.20;1.00;;;;;;5095665;28;20399;-64
2022/03/14 10:10:29;;;;;;;19.17;12.60;;;12.20;1.00;;;;;;5077606;28;20538;-71
2022/03/14 10:12:57;;;;;;;19.07;13.27;;;12.30;1.00;;;;;;5087123;28;20432;-67
2022/03/14 10:15:25;;;;;;;18.43;12.87;;;12.30;1.00;;;;;;5090473;28;20419;-66
2022/03/14 10:17:52;;;;;;;20.52;12.57;;;12.40;1.00;;;;;;5094333;28;20390;-68
2022/03/14 10:20:19;;;;;;;19.60;13.87;;;12.60;1.00;;;;;;5078798;28;20508;-64
2022/03/14 10:22:45;;;;;;;19.50;13.30;;;12.90;1.00;;;;;;5077869;28;20937;-64
2022/03/14 10:25:13;;;;;;;25.07;13.20;;;13.20;1.00;;;;;;5093364;28;20415;-69
2022/03/14 10:27:41;;;;;;;23.60;12.10;;;13.50;1.00;;;;;;5075129;28;20437;-68
2022/03/14 10:30:20;;;;;;;20.40;13.23;;;13.90;1.00;;;;;;5088110;28;20839;-69
2022/03/14 10:32:48;;;;;;;22.90;13.77;;;13.90;1.00;;;;;;5074685;28;20399;-68
2022/03/14 10:35:20;;;;;;;20.00;12.70;;;13.70;1.00;;;;;;5092603;28;20426;-70
2022/03/14 10:38:08;;;;;;;19.23;13.40;;;13.70;1.00;;;;;;5094739;28;20394;-69
2022/03/14 10:41:11;;;;;;;21.03;13.47;;;13.60;1.00;;;;;;5074033;28;20416;-70
2022/03/14 10:43:38;;;;;;;19.50;13.60;;;13.20;1.00;;;;;;5057549;28;20394;-63
2022/03/14 10:46:04;;;;;;;19.47;14.10;;;12.70;1.00;;;;;;5070565;28;20444;-64
2022/03/14 10:48:43;;;;;;;22.00;14.63;;;12.40;1.00;;;;;;5092270;28;20416;-68
2022/03/14 10:51:10;;;;;;;24.87;14.77;;;12.60;1.00;;;;;;5094851;28;20454;-67
2022/03/14 10:53:47;;;;;;;23.93;14.63;;;13.00;1.00;;;;;;5086048;28;20512;-64
2022/03/14 10:56:14;;;;;;;17.63;13.63;;;13.20;1.00;;;;;;5074721;28;20392;-69
2022/03/14 10:58:43;;;;;;;21.83;13.50;;;13.50;1.00;;;;;;5081486;28;20507;-69
2022/03/14 11:01:12;;;;;;;30.67;14.80;;;14.00;1.00;;;;;;5094656;28;20398;-64
2022/03/14 11:03:45;;;;;;;19.73;15.20;;;14.40;1.00;;;;;;5086906;28;20514;-63
2022/03/14 11:06:17;;;;;;;21.57;15.17;;;14.60;1.00;;;;;;5074684;28;20409;-63
2022/03/14 11:08:45;;;;;;;23.90;15.00;;;14.70;1.00;;;;;;5081174;28;20390;-70
2022/03/14 11:11:20;;;;;;;23.83;15.27;;;14.50;1.00;;;;;;5094412;28;20941;-63
2022/03/14 11:13:48;;;;;;;19.90;13.30;;;14.10;1.00;;;;;;5086649;28;20470;-63
2022/03/14 11:16:26;;;;;;;20.90;13.10;;;13.70;1.00;;;;;;5073811;28;20382;-66
2022/03/14 11:18:52;;;;;;;27.43;16.10;;;13.50;1.00;;;;;;5082434;28;20456;-69
2022/03/14 11:21:20;;;;;;;22.87;14.57;;;13.30;1.00;;;;;;5093544;28;20421;-70
2022/03/14 11:23:49;;;;;;;23.73;13.70;;;13.20;1.00;;;;;;5085380;28;20412;-71
2022/03/14 11:26:17;;;;;;;23.83;15.10;;;13.00;1.00;;;;;;5074152;28;20397;-68
2022/03/14 11:28:45;;;;;;;22.90;14.60;;;13.00;1.00;;;;;;5080008;28;20398;-63
2022/03/14 11:31:11;;;;;;;27.53;13.77;;;13.00;1.00;;;;;;5094037;28;20846;-64
2022/03/14 11:33:37;;;;;;;17.93;12.70;;;12.80;1.00;;;;;;5088279;28;20391;-70
2022/03/14 11:36:05;;;;;;;17.03;13.23;;;12.60;1.00;;;;;;5073520;28;20250;-69
2022/03/14 11:38:31;;;;;;;21.03;12.20;;;12.40;1.00;;;;;;5091544;28;20196;-69
2022/03/14 11:40:58;;;;;;;17.40;14.83;;;12.40;1.00;;;;;;5092822;28;20413;-69
2022/03/14 11:43:24;;;;;;;25.10;14.77;;;12.30;1.00;;;;;;5092265;28;20394;-68
2022/03/14 11:45:50;;;;;;;16.27;13.97;;;12.30;1.00;;;;;;5093938;28;20889;-70
2022/03/14 11:48:17;;;;;;;23.00;14.20;;;12.40;1.00;;;;;;5092301;28;20390;-64
2022/03/14 11:50:45;;;;;;;14.53;12.70;;;12.50;1.00;;;;;;5092960;28;20911;-70
2022/03/14 11:53:18;;;;;;;19.80;13.47;;;12.60;1.00;;;;;;5077192;28;20403;-63
2022/03/14 11:55:58;;;;;;;21.70;14.00;;;12.70;1.00;;;;;;5073056;28;20420;-63
2022/03/14 11:58:28;;;;;;;23.43;14.23;;;12.80;1.00;;;;;;5072643;28;20887;-64
2022/03/14 12:00:54;;;;;;;17.00;12.63;;;12.80;1.00;;;;;;5085787;28;20385;-63
2022/03/14 12:03:55;;;;;;;20.87;14.27;;;12.70;1.00;;;;;;5077957;28;20433;-63
2022/03/14 12:06:47;;;;;;;22.43;14.83;;;12.60;1.00;;;;;;5079265;28;20875;-64
2022/03/14 12:09:37;;;;;;;18.53;13.13;;;12.70;1.00;;;;;;5080814;28;20917;-63
2022/03/14 12:12:05;;;;;;;16.90;13.20;;;13.00;1.00;;;;;;5075266;28;20471;-64
2022/03/14 12:14:45;;;;;;;15.33;11.93;;;13.00;1.00;;;;;;5079893;28;20398;-63
2022/03/14 12:17:13;;;;;;;19.93;14.90;;;13.00;1.00;;;;;;5073218;28;20464;-63
2022/03/14 12:19:42;;;;;;;17.77;14.13;;;13.20;1.00;;;;;;5085889;28;20946;-71
2022/03/14 12:22:13;;;;;;;19.57;13.53;;;13.30;1.00;;;;;;5093343;28;20390;-63
2022/03/14 12:24:38;;;;;;;15.60;11.70;;;13.20;1.00;;;;;;5079899;28;20440;-63
2022/03/14 12:27:14;;;;;;;17.57;13.27;;;13.10;1.00;;;;;;5073309;28;20801;-71
2022/03/14 12:29:40;;;;;;;24.93;13.83;;;13.10;1.00;;;;;;5072981;28;20232;-64
2022/03/14 12:32:26;;;;;;;17.70;13.53;;;13.20;1.00;;;;;;5072212;28;20440;-71
2022/03/14 12:35:12;;;;;;;20.60;15.07;;;13.40;1.00;;;;;;5086530;28;20174;-64
2022/03/14 12:37:42;;;;;;;17.33;12.80;;;13.40;1.00;;;;;;5092956;28;20420;-70
2022/03/14 12:40:14;;;;;;;19.00;13.23;;;13.40;1.00;;;;;;5076048;28;20460;-64
2022/03/14 12:42:45;;;;;;;15.90;13.17;;;13.60;1.00;;;;;;5072751;28;20883;-71
2022/03/14 12:45:37;;;;;;;20.17;12.73;;;13.50;1.00;;;;;;5088257;28;20490;-71
2022/03/14 12:48:20;;;;;;;16.33;12.40;;;13.30;1.00;;;;;;5092854;28;20826;-71
2022/03/14 12:50:58;;;;;;;22.30;15.30;;;13.50;1.00;;;;;;5071297;28;20431;-63